createdAt,value
2023-03-20T00:02:52.623Z,39.12
2023-03-20T00:06:52.688Z,39.13
2023-03-20T00:10:52.773Z,39.11
2023-03-20T00:14:52.849Z,39.12
2023-03-20T00:18:52.934Z,39.14
2023-03-20T00:22:52.999Z,39.11
2023-03-20T00:26:53.031Z,39.15
2023-03-20T00:30:53.059Z,39.16
2023-03-20T00:34:53.104Z,39.16
2023-03-20T00:38:53.164Z,39.18
2023-03-20T00:42:53.180Z,39.15
2023-03-20T00:46:53.294Z,39.18
2023-03-20T00:50:53.222Z,39.18
2023-03-20T00:54:53.232Z,39.16
2023-03-20T00:58:53.208Z,39.18
2023-03-20T01:02:53.258Z,39.19
2023-03-20T01:06:53.292Z,39.21
2023-03-20T01:10:53.337Z,39.22
2023-03-20T01:14:53.340Z,39.21
2023-03-20T01:18:53.402Z,39.21
2023-03-20T01:22:53.449Z,39.21
2023-03-20T01:26:53.490Z,39.21
2023-03-20T01:30:53.524Z,39.26
2023-03-20T01:34:53.603Z,39.24
2023-03-20T01:38:53.735Z,39.22
2023-03-20T01:42:53.838Z,39.23
2023-03-20T01:46:53.943Z,39.24
2023-03-20T01:50:53.981Z,39.26
2023-03-20T01:54:54.023Z,39.26
2023-03-20T01:58:54.086Z,39.27
2023-03-20T02:02:54.164Z,39.28
2023-03-20T02:06:54.266Z,39.30
2023-03-20T02:10:54.278Z,39.30
2023-03-20T02:14:54.393Z,39.29
2023-03-20T02:18:54.463Z,39.28
2023-03-20T02:22:54.603Z,39.30
2023-03-20T02:26:54.676Z,39.29
2023-03-20T02:30:54.802Z,39.32
2023-03-20T02:34:54.842Z,39.29
2023-03-20T02:38:54.891Z,39.32
2023-03-20T02:42:54.978Z,39.31
2023-03-20T02:46:55.078Z,39.33
2023-03-20T02:50:55.182Z,39.33
2023-03-20T02:54:55.254Z,39.30
2023-03-20T02:58:55.359Z,39.31
2023-03-20T03:02:55.390Z,39.33
2023-03-20T03:06:55.401Z,39.33
2023-03-20T03:10:55.494Z,39.33
2023-03-20T03:14:55.586Z,39.32
2023-03-20T03:18:55.749Z,39.35
2023-03-20T03:22:55.837Z,39.35
2023-03-20T03:26:55.929Z,39.38
2023-03-20T03:30:56.036Z,39.40
2023-03-20T03:34:56.008Z,39.37
2023-03-20T03:38:56.016Z,39.34
2023-03-20T03:42:56.070Z,39.39
2023-03-20T03:46:56.258Z,39.38
2023-03-20T03:50:56.180Z,39.40
2023-03-20T03:54:56.257Z,39.38
2023-03-20T03:58:56.326Z,39.41
2023-03-20T04:02:56.479Z,39.39
2023-03-20T04:06:56.508Z,39.42
2023-03-20T04:10:56.630Z,39.42
2023-03-20T04:14:56.666Z,39.40
2023-03-20T04:18:56.709Z,39.40
2023-03-20T04:22:56.765Z,39.41
2023-03-20T04:26:56.751Z,39.42
2023-03-20T04:30:56.846Z,39.42
2023-03-20T04:34:56.907Z,39.44
2023-03-20T04:38:57.758Z,39.45
2023-03-20T04:42:56.941Z,39.49
2023-03-20T04:46:56.981Z,39.44
2023-03-20T04:50:56.985Z,39.48
2023-03-20T04:54:56.993Z,39.47
2023-03-20T04:58:57.005Z,39.45
2023-03-20T05:02:56.955Z,39.47
2023-03-20T05:06:57.009Z,39.50
2023-03-20T05:10:57.012Z,39.48
2023-03-20T05:14:57.126Z,39.45
2023-03-20T05:18:57.016Z,39.48
2023-03-20T05:22:57.011Z,39.46
2023-03-20T05:26:57.029Z,39.47
2023-03-20T05:30:57.059Z,39.49
2023-03-20T05:34:57.023Z,39.48
2023-03-20T05:38:56.986Z,39.48
2023-03-20T05:42:57.000Z,39.50
2023-03-20T05:46:57.033Z,39.48
2023-03-20T05:50:57.012Z,39.52
2023-03-20T05:54:56.998Z,39.50
2023-03-20T05:58:57.010Z,39.48
2023-03-20T06:02:57.017Z,39.51
2023-03-20T06:06:57.049Z,39.52
2023-03-20T06:10:57.078Z,39.53
2023-03-20T06:14:57.125Z,39.53
2023-03-20T06:18:57.142Z,39.53
2023-03-20T06:22:57.174Z,39.53
2023-03-20T06:26:57.167Z,39.53
2023-03-20T06:30:57.236Z,39.52
2023-03-20T06:34:57.140Z,39.52
2023-03-20T06:38:57.201Z,39.52
2023-03-20T06:42:57.220Z,39.52
2023-03-20T06:46:57.241Z,39.51
2023-03-20T06:50:57.213Z,39.53
2023-03-20T06:54:57.230Z,39.53
2023-03-20T06:58:57.705Z,39.55
2023-03-20T07:02:58.119Z,39.56
2023-03-20T07:06:57.298Z,39.56
2023-03-20T07:10:57.293Z,39.55
2023-03-20T07:14:57.327Z,39.58
2023-03-20T07:18:57.323Z,39.54
2023-03-20T07:22:57.312Z,39.57
2023-03-20T07:26:57.355Z,39.54
2023-03-20T07:30:57.439Z,39.55
2023-03-20T07:34:57.446Z,39.58
2023-03-20T07:38:57.417Z,39.58
2023-03-20T07:42:57.733Z,39.55
2023-03-20T07:46:57.418Z,39.59
2023-03-20T07:50:57.717Z,39.58
2023-03-20T07:54:57.718Z,39.59
2023-03-20T07:58:57.748Z,39.56
2023-03-20T08:02:58.050Z,39.55
2023-03-20T08:06:57.740Z,39.52
2023-03-20T08:10:58.259Z,39.55
2023-03-20T08:14:57.815Z,39.55
2023-03-20T08:18:57.851Z,39.56
2023-03-20T08:22:58.261Z,39.57
2023-03-20T08:26:57.879Z,39.70
2023-03-20T08:30:57.979Z,39.79
2023-03-20T08:34:57.940Z,39.85
2023-03-20T08:38:57.965Z,39.93
2023-03-20T08:42:58.255Z,39.65
2023-03-20T08:46:58.231Z,40.83
2023-03-20T08:50:58.757Z,41.50
2023-03-20T08:54:58.272Z,42.11
2023-03-20T08:58:58.532Z,42.33
2023-03-20T09:02:58.708Z,42.77
2023-03-20T09:06:58.734Z,43.55
2023-03-20T09:10:58.779Z,43.78
2023-03-20T09:14:58.808Z,44.21
2023-03-20T09:18:58.776Z,44.83
2023-03-20T09:22:59.267Z,45.24
2023-03-20T09:26:58.850Z,45.85
2023-03-20T09:30:58.851Z,46.40
2023-03-20T09:34:59.250Z,46.31
2023-03-20T09:38:59.264Z,46.44
2023-03-20T09:42:59.255Z,46.22
2023-03-20T09:47:16.457Z,45.96
2023-03-20T09:51:00.290Z,45.81
2023-03-20T09:54:59.293Z,45.57
2023-03-20T09:58:58.783Z,45.35
2023-03-20T10:02:58.714Z,45.19
2023-03-20T10:06:58.739Z,45.03
2023-03-20T10:10:58.901Z,44.87
2023-03-20T10:14:59.012Z,44.73
2023-03-20T10:18:59.292Z,44.62
2023-03-20T10:22:59.261Z,44.50
2023-03-20T10:26:59.781Z,44.36
2023-03-20T10:30:59.548Z,44.31
2023-03-20T10:34:59.784Z,44.16
2023-03-20T10:39:00.331Z,44.10
2023-03-20T10:43:00.046Z,44.03
2023-03-20T10:47:00.326Z,43.40
2023-03-20T10:51:00.810Z,44.38
2023-03-20T10:55:00.798Z,44.62
2023-03-20T10:59:00.804Z,45.20
2023-03-20T11:03:00.845Z,45.31
2023-03-20T11:07:00.923Z,46.19
2023-03-20T11:11:01.358Z,47.18
2023-03-20T11:15:00.898Z,47.78
2023-03-20T11:19:00.899Z,47.90
2023-03-20T11:23:01.025Z,48.31
2023-03-20T11:27:01.054Z,48.73
2023-03-20T11:31:04.823Z,49.30
2023-03-20T11:35:01.312Z,49.05
2023-03-20T11:39:01.017Z,48.99
2023-03-20T11:43:01.283Z,48.93
2023-03-20T11:47:01.395Z,48.93
2023-03-20T11:52:37.453Z,48.26
2023-03-20T11:56:37.200Z,48.15
2023-03-20T12:00:37.365Z,48.00
2023-03-20T12:04:37.182Z,47.87
2023-03-20T12:08:37.117Z,47.78
2023-03-20T12:12:37.681Z,47.35
2023-03-20T12:16:37.218Z,47.44
2023-03-20T12:20:37.557Z,47.38
2023-03-20T12:24:36.986Z,46.76
2023-03-20T12:32:37.525Z,44.82
2023-03-20T12:36:37.462Z,45.44
2023-03-20T12:40:37.512Z,45.68
2023-03-20T12:44:37.244Z,45.40
2023-03-20T12:48:37.605Z,45.84
2023-03-20T12:52:37.661Z,45.65
2023-03-20T12:56:37.403Z,45.55
2023-03-20T13:00:37.567Z,45.59
2023-03-20T13:04:37.478Z,45.65
2023-03-20T13:08:37.476Z,45.71
2023-03-20T13:12:37.509Z,45.71
2023-03-20T13:16:37.622Z,45.73
2023-03-20T13:20:38.297Z,45.69
2023-03-20T13:24:37.734Z,45.71
2023-03-20T13:28:37.984Z,45.77
2023-03-20T13:32:37.898Z,46.12
2023-03-20T13:36:38.071Z,47.76
2023-03-20T13:40:38.337Z,48.92
2023-03-20T13:44:38.220Z,49.47
2023-03-20T13:48:38.342Z,49.67
2023-03-20T13:52:38.441Z,49.79
2023-03-20T13:56:38.668Z,49.75
2023-03-20T14:00:38.967Z,49.72
2023-03-20T14:04:38.839Z,49.59
2023-03-20T14:08:38.993Z,49.51
2023-03-20T14:12:39.146Z,49.32
2023-03-20T14:16:39.308Z,49.19
2023-03-20T14:20:39.454Z,49.08
2023-03-20T14:28:28.617Z,48.93
2023-03-20T14:32:28.583Z,48.83
2023-03-20T14:36:28.530Z,48.79
2023-03-20T14:40:28.485Z,48.68
2023-03-20T14:44:28.640Z,48.54
2023-03-20T14:48:28.889Z,48.47
2023-03-20T14:52:29.823Z,48.38
2023-03-20T14:56:29.207Z,48.29
2023-03-20T15:00:29.413Z,48.16
2023-03-20T15:04:29.585Z,47.97
2023-03-20T15:08:29.755Z,47.78
2023-03-20T15:12:30.317Z,47.70
2023-03-20T15:16:30.330Z,45.95
2023-03-20T15:20:30.144Z,42.49
2023-03-20T15:24:30.248Z,41.99
2023-03-20T15:28:30.341Z,39.83
2023-03-20T15:32:30.436Z,40.15
2023-03-20T15:36:30.500Z,42.17
2023-03-20T15:40:43.552Z,43.66
2023-03-20T15:44:31.689Z,44.56
2023-03-20T15:48:30.640Z,45.14
2023-03-20T15:52:30.623Z,45.58
2023-03-20T15:56:30.555Z,45.87
2023-03-20T16:00:30.707Z,46.09
2023-03-20T16:04:30.875Z,46.20
2023-03-20T16:08:31.048Z,46.29
2023-03-20T16:12:31.185Z,46.35
2023-03-20T16:16:31.380Z,46.39
2023-03-20T16:20:31.523Z,46.41
2023-03-20T16:24:31.737Z,46.44
2023-03-20T16:28:31.899Z,46.45
2023-03-20T16:32:32.140Z,46.46
2023-03-20T16:36:32.358Z,46.47
2023-03-20T16:40:32.498Z,46.47
2023-03-20T16:44:32.697Z,46.45
2023-03-20T16:48:32.913Z,46.46
2023-03-20T16:52:33.254Z,46.46
2023-03-20T16:56:33.386Z,46.44
2023-03-20T17:00:33.713Z,46.40
2023-03-20T17:04:33.535Z,46.40
2023-03-20T17:08:33.467Z,46.36
2023-03-20T17:12:33.413Z,46.32
2023-03-20T17:16:33.432Z,46.33
2023-03-20T17:20:33.330Z,46.31
2023-03-20T17:24:33.335Z,46.27
2023-03-20T17:28:33.290Z,46.24
2023-03-20T17:32:33.235Z,46.24
2023-03-20T17:36:33.205Z,46.21
2023-03-20T17:40:33.262Z,46.19
2023-03-20T17:44:33.242Z,46.15
2023-03-20T17:48:33.197Z,46.14
2023-03-20T17:52:33.508Z,46.10
2023-03-20T17:56:33.142Z,46.05
2023-03-20T18:00:33.117Z,46.06
2023-03-20T18:04:33.094Z,46.01
2023-03-20T18:08:33.016Z,45.97
2023-03-20T18:12:32.994Z,45.94
2023-03-20T18:16:32.932Z,45.92
2023-03-20T18:20:33.162Z,45.86
2023-03-20T18:24:33.391Z,45.87
2023-03-20T18:28:33.062Z,45.89
2023-03-20T18:32:33.043Z,45.79
2023-03-20T18:36:32.981Z,45.76
2023-03-20T18:40:32.931Z,45.75
2023-03-20T18:44:32.930Z,45.73
2023-03-20T18:48:32.855Z,45.72
2023-03-20T18:52:32.831Z,45.68
2023-03-20T18:56:32.915Z,45.62
2023-03-20T19:00:32.917Z,45.61
2023-03-20T19:04:32.884Z,45.60
2023-03-20T19:08:32.854Z,45.60
2023-03-20T19:12:32.814Z,45.54
2023-03-20T19:16:32.846Z,45.53
2023-03-20T19:20:32.726Z,45.47
2023-03-20T19:24:32.699Z,45.45
2023-03-20T19:28:40.674Z,45.43
2023-03-20T19:32:33.582Z,45.43
2023-03-20T19:36:32.607Z,45.40
2023-03-20T19:40:32.577Z,45.34
2023-03-20T19:44:32.748Z,45.37
2023-03-20T19:48:46.990Z,45.35
2023-03-20T19:52:33.828Z,45.32
2023-03-20T19:56:32.832Z,45.25
2023-03-20T20:00:56.849Z,45.23
2023-03-20T20:04:33.826Z,45.21
2023-03-20T20:08:46.584Z,45.19
2023-03-20T20:12:33.757Z,45.17
2023-03-20T20:16:32.816Z,45.15
2023-03-20T20:20:34.531Z,45.12
2023-03-20T20:24:32.843Z,45.06
2023-03-20T20:28:33.011Z,45.09
2023-03-20T20:32:33.151Z,45.00
2023-03-20T20:40:34.230Z,44.98
2023-03-20T20:44:33.194Z,44.96
2023-03-20T20:48:33.135Z,44.94
2023-03-20T20:52:33.176Z,44.89
2023-03-20T20:56:33.243Z,44.87
2023-03-20T21:00:48.419Z,44.84
2023-03-20T21:04:34.248Z,44.80
2023-03-20T21:08:33.224Z,44.78
2023-03-20T21:12:42.410Z,44.78
2023-03-20T21:16:34.139Z,44.76
2023-03-20T21:20:33.110Z,44.71
2023-03-20T21:24:34.697Z,44.69
2023-03-20T21:28:33.136Z,44.60
2023-03-20T21:32:33.230Z,44.61
2023-03-20T21:36:33.206Z,44.62
2023-03-20T21:40:33.204Z,44.59
2023-03-20T21:45:20.758Z,44.56
2023-03-20T21:49:22.776Z,44.55
2023-03-20T22:09:30.730Z,44.42
2023-03-20T22:13:21.006Z,44.40
2023-03-20T22:17:36.579Z,44.39
2023-03-20T22:21:18.327Z,44.41
2023-03-20T22:33:29.895Z,44.33
2023-03-20T22:41:29.630Z,44.24
2023-03-20T22:44:59.630Z,44.24
2023-03-20T22:48:33.682Z,44.20
2023-03-20T22:52:47.766Z,44.22
2023-03-20T22:56:33.581Z,44.15
2023-03-20T23:00:32.565Z,44.15
2023-03-20T23:04:32.561Z,44.10
2023-03-20T23:08:36.141Z,44.07
2023-03-20T23:12:33.469Z,44.06
2023-03-20T23:16:32.440Z,44.03
2023-03-20T23:20:32.383Z,44.00
2023-03-20T23:24:32.349Z,43.97
2023-03-20T23:28:32.360Z,43.98
2023-03-20T23:32:32.426Z,43.94
2023-03-20T23:36:36.912Z,43.94
2023-03-20T23:40:32.400Z,43.90
2023-03-20T23:44:32.387Z,43.90
2023-03-20T23:48:32.350Z,43.84
2023-03-20T23:52:32.797Z,43.83
2023-03-20T23:56:32.374Z,43.84
